createdAt,value
2023-03-30T00:01:00.679Z,19.97
2023-03-30T00:03:28.385Z,20.57
2023-03-30T00:05:58.926Z,19.37
2023-03-30T00:08:28.325Z,20.20
2023-03-30T00:11:03.928Z,20.23
2023-03-30T00:13:30.635Z,19.27
2023-03-30T00:15:57.080Z,19.73
2023-03-30T00:18:23.762Z,18.90
2023-03-30T00:20:51.845Z,19.73
2023-03-30T00:23:19.038Z,19.27
2023-03-30T00:25:45.791Z,18.77
2023-03-30T00:28:12.260Z,18.73
2023-03-30T00:30:39.101Z,19.97
2023-03-30T00:33:05.650Z,19.47
2023-03-30T00:35:32.457Z,20.67
2023-03-30T00:38:03.306Z,19.10
2023-03-30T00:40:31.568Z,20.20
2023-03-30T00:43:07.906Z,20.00
2023-03-30T00:45:36.533Z,19.33
2023-03-30T00:48:17.707Z,19.00
2023-03-30T00:51:02.633Z,18.63
2023-03-30T00:53:35.281Z,18.17
2023-03-30T00:56:07.591Z,17.47
2023-03-30T00:58:35.603Z,18.00
2023-03-30T01:01:04.186Z,16.90
2023-03-30T01:03:32.707Z,16.47
2023-03-30T01:06:01.681Z,17.43
2023-03-30T01:08:34.937Z,16.77
2023-03-30T01:11:02.330Z,17.77
2023-03-30T01:13:30.002Z,17.13
2023-03-30T01:16:28.882Z,17.30
2023-03-30T01:19:29.487Z,17.03
2023-03-30T01:22:15.537Z,16.63
2023-03-30T01:25:15.119Z,16.83
2023-03-30T01:28:13.269Z,15.77
2023-03-30T01:30:51.898Z,16.93
2023-03-30T01:33:24.973Z,16.97
2023-03-30T01:36:15.814Z,16.70
2023-03-30T01:39:16.705Z,16.80
2023-03-30T01:41:52.336Z,16.20
2023-03-30T01:44:31.096Z,15.93
2023-03-30T01:47:09.915Z,15.97
2023-03-30T01:49:45.102Z,16.03
2023-03-30T01:52:28.663Z,15.90
2023-03-30T01:55:04.690Z,15.90
2023-03-30T01:57:39.665Z,16.43
2023-03-30T02:00:17.688Z,14.23
2023-03-30T02:02:49.418Z,14.40
2023-03-30T02:05:18.104Z,14.67
2023-03-30T02:07:51.488Z,14.43
2023-03-30T02:10:20.176Z,15.00
2023-03-30T02:12:46.997Z,14.80
2023-03-30T02:15:15.344Z,14.80
2023-03-30T02:17:42.422Z,13.73
2023-03-30T02:20:10.591Z,13.93
2023-03-30T02:22:37.183Z,14.83
2023-03-30T02:25:04.067Z,13.93
2023-03-30T02:27:31.874Z,13.40
2023-03-30T02:29:58.275Z,14.00
2023-03-30T02:32:27.457Z,13.40
2023-03-30T02:35:07.216Z,12.53
2023-03-30T02:37:54.667Z,13.33
2023-03-30T02:40:36.550Z,12.27
2023-03-30T02:43:11.558Z,12.97
2023-03-30T02:45:53.932Z,13.47
2023-03-30T02:48:32.483Z,12.70
2023-03-30T02:51:12.479Z,12.23
2023-03-30T02:53:41.789Z,12.37
2023-03-30T02:56:24.319Z,12.27
2023-03-30T02:58:54.884Z,11.87
2023-03-30T03:01:43.667Z,11.40
2023-03-30T03:04:11.673Z,12.27
2023-03-30T03:06:38.996Z,11.80
2023-03-30T03:09:05.663Z,11.47
2023-03-30T03:11:32.093Z,11.07
2023-03-30T03:13:59.412Z,11.13
2023-03-30T03:16:25.928Z,11.53
2023-03-30T03:18:52.591Z,11.33
2023-03-30T03:21:19.021Z,11.03
2023-03-30T03:23:48.185Z,10.83
2023-03-30T03:26:14.636Z,11.50
2023-03-30T03:28:41.212Z,10.87
2023-03-30T03:31:10.238Z,11.30
2023-03-30T03:33:36.919Z,11.30
2023-03-30T03:36:04.111Z,11.30
2023-03-30T03:38:30.814Z,10.90
2023-03-30T03:40:58.817Z,10.73
2023-03-30T03:43:26.017Z,10.97
2023-03-30T03:45:52.781Z,10.07
2023-03-30T03:48:21.729Z,10.73
2023-03-30T03:50:53.397Z,10.60
2023-03-30T03:53:20.568Z,9.87
2023-03-30T03:55:47.327Z,10.33
2023-03-30T03:58:14.472Z,10.07
2023-03-30T04:00:41.075Z,9.80
2023-03-30T04:03:08.963Z,9.90
2023-03-30T04:05:36.048Z,9.43
2023-03-30T04:08:02.787Z,8.80
2023-03-30T04:10:29.171Z,8.43
2023-03-30T04:12:59.541Z,8.43
2023-03-30T04:15:26.015Z,7.53
2023-03-30T04:17:58.060Z,8.23
2023-03-30T04:20:29.090Z,7.73
2023-03-30T04:22:55.758Z,7.80
2023-03-30T04:25:25.732Z,7.60
2023-03-30T04:27:53.010Z,7.40
2023-03-30T04:30:20.369Z,6.83
2023-03-30T04:32:54.637Z,6.23
2023-03-30T04:35:21.120Z,6.37
2023-03-30T04:37:52.294Z,6.80
2023-03-30T04:40:19.649Z,5.87
2023-03-30T04:42:49.937Z,5.70
2023-03-30T04:45:20.588Z,6.70
2023-03-30T04:47:47.401Z,6.90
2023-03-30T04:50:14.235Z,5.80
2023-03-30T04:52:41.046Z,5.37
2023-03-30T04:55:09.721Z,5.57
2023-03-30T04:57:36.172Z,5.67
2023-03-30T05:00:05.931Z,4.73
2023-03-30T05:02:32.370Z,5.00
2023-03-30T05:04:58.853Z,4.87
2023-03-30T05:07:25.612Z,5.50
2023-03-30T05:09:52.539Z,4.77
2023-03-30T05:12:18.940Z,4.70
2023-03-30T05:14:45.469Z,5.40
2023-03-30T05:17:12.192Z,4.90
2023-03-30T05:19:38.564Z,4.50
2023-03-30T05:22:04.926Z,5.03
2023-03-30T05:24:31.322Z,4.90
2023-03-30T05:26:57.718Z,4.20
2023-03-30T05:29:24.115Z,4.27
2023-03-30T05:31:50.540Z,4.33
2023-03-30T05:34:17.067Z,4.53
2023-03-30T05:36:43.933Z,4.30
2023-03-30T05:39:10.426Z,4.13
2023-03-30T05:41:36.892Z,4.00
2023-03-30T05:44:04.842Z,3.70
2023-03-30T05:46:31.287Z,4.10
2023-03-30T05:48:57.815Z,4.00
2023-03-30T05:51:24.756Z,4.23
2023-03-30T05:53:51.211Z,4.20
2023-03-30T05:56:25.093Z,3.53
2023-03-30T05:58:51.749Z,4.30
2023-03-30T06:01:18.128Z,3.80
2023-03-30T06:03:44.761Z,3.70
2023-03-30T06:06:12.164Z,3.87
2023-03-30T06:08:39.412Z,4.10
2023-03-30T06:11:06.928Z,3.97
2023-03-30T06:13:33.666Z,3.70
2023-03-30T06:16:02.904Z,3.77
2023-03-30T06:18:29.876Z,3.87
2023-03-30T06:20:56.329Z,2.87
2023-03-30T06:23:23.036Z,3.87
2023-03-30T06:25:53.057Z,3.43
2023-03-30T06:28:20.448Z,3.30
2023-03-30T06:30:48.978Z,3.00
2023-03-30T06:33:16.479Z,3.67
2023-03-30T06:35:47.844Z,3.13
2023-03-30T06:38:15.263Z,3.20
2023-03-30T06:40:41.963Z,3.37
2023-03-30T06:43:09.271Z,2.90
2023-03-30T06:45:35.788Z,3.30
2023-03-30T06:48:02.985Z,3.33
2023-03-30T06:50:29.460Z,3.10
2023-03-30T06:52:55.967Z,3.73
2023-03-30T06:55:22.414Z,3.17
2023-03-30T06:57:48.812Z,3.13
2023-03-30T07:00:15.476Z,3.23
2023-03-30T07:02:42.399Z,2.90
2023-03-30T07:05:09.736Z,3.07
2023-03-30T07:07:36.514Z,3.30
2023-03-30T07:10:10.327Z,2.80
2023-03-30T07:12:38.129Z,2.67
2023-03-30T07:15:07.373Z,3.53
2023-03-30T07:17:34.845Z,3.90
2023-03-30T07:20:01.894Z,3.10
2023-03-30T07:22:28.328Z,2.67
2023-03-30T07:24:55.390Z,3.17
2023-03-30T07:27:25.470Z,3.10
2023-03-30T07:29:52.275Z,2.57
2023-03-30T07:32:19.383Z,3.23
2023-03-30T07:34:46.164Z,2.40
2023-03-30T07:37:19.997Z,2.83
2023-03-30T07:39:47.873Z,2.67
2023-03-30T07:42:14.534Z,2.43
2023-03-30T07:44:41.063Z,2.30
2023-03-30T07:47:07.529Z,2.70
2023-03-30T07:49:33.997Z,2.50
2023-03-30T07:52:01.448Z,3.23
2023-03-30T07:54:27.929Z,2.60
2023-03-30T07:56:54.404Z,2.80
2023-03-30T07:59:21.923Z,2.30
2023-03-30T08:01:50.314Z,2.50
2023-03-30T08:04:17.939Z,2.57
2023-03-30T08:06:45.014Z,2.30
2023-03-30T08:09:12.714Z,2.97
2023-03-30T08:11:39.421Z,2.47
2023-03-30T08:14:06.056Z,2.80
2023-03-30T08:16:32.535Z,2.67
2023-03-30T08:18:59.472Z,2.60
2023-03-30T08:21:26.316Z,2.40
2023-03-30T08:23:53.618Z,2.40
2023-03-30T08:26:20.009Z,2.77
2023-03-30T08:28:46.447Z,2.90
2023-03-30T08:31:12.998Z,2.70
2023-03-30T08:33:39.730Z,2.40
2023-03-30T08:36:06.180Z,2.30
2023-03-30T08:38:32.893Z,2.67
2023-03-30T08:40:59.288Z,2.30
2023-03-30T08:43:33.427Z,2.37
2023-03-30T08:46:01.569Z,2.60
2023-03-30T08:48:32.476Z,2.40
2023-03-30T08:51:08.422Z,2.23
2023-03-30T08:53:34.853Z,2.13
2023-03-30T08:56:26.128Z,2.23
2023-03-30T08:59:08.387Z,2.40
2023-03-30T09:01:48.492Z,2.30
2023-03-30T09:04:24.435Z,1.90
2023-03-30T09:06:52.843Z,2.00
2023-03-30T09:09:21.530Z,2.00
2023-03-30T09:12:06.862Z,1.73
2023-03-30T09:14:40.738Z,2.23
2023-03-30T09:17:12.879Z,2.60
2023-03-30T09:19:52.721Z,2.60
2023-03-30T09:22:19.805Z,2.20
2023-03-30T09:24:46.753Z,1.90
2023-03-30T09:27:25.176Z,1.97
2023-03-30T09:29:54.586Z,2.00
2023-03-30T09:32:31.509Z,2.30
2023-03-30T09:35:03.189Z,2.17
2023-03-30T09:37:29.777Z,2.03
2023-03-30T09:39:59.000Z,2.20
2023-03-30T09:42:44.928Z,1.70
2023-03-30T09:45:23.631Z,1.83
2023-03-30T09:47:50.286Z,1.77
2023-03-30T09:50:19.796Z,1.80
2023-03-30T09:53:03.443Z,1.90
2023-03-30T09:55:35.196Z,1.70
2023-03-30T09:58:13.757Z,1.80
2023-03-30T10:00:40.462Z,2.17
2023-03-30T10:03:07.757Z,1.80
2023-03-30T10:05:36.082Z,1.80
2023-03-30T10:08:05.249Z,1.40
2023-03-30T10:10:38.513Z,1.90
2023-03-30T10:13:19.733Z,1.77
2023-03-30T10:15:48.635Z,2.00
2023-03-30T10:18:18.095Z,2.33
2023-03-30T10:20:51.568Z,2.13
2023-03-30T10:23:19.657Z,1.40
2023-03-30T10:25:50.142Z,1.77
2023-03-30T10:28:30.886Z,1.73
2023-03-30T10:31:00.185Z,1.97
2023-03-30T10:33:28.191Z,2.30
2023-03-30T10:35:56.310Z,1.43
2023-03-30T10:38:23.379Z,1.70
2023-03-30T10:40:55.700Z,1.93
2023-03-30T10:43:26.152Z,1.80
2023-03-30T10:45:54.701Z,2.07
2023-03-30T10:48:58.811Z,1.90
2023-03-30T10:51:31.350Z,2.20
2023-03-30T10:54:03.862Z,1.90
2023-03-30T10:56:39.079Z,2.20
2023-03-30T10:59:10.867Z,1.70
2023-03-30T11:01:49.820Z,2.00
2023-03-30T11:04:28.572Z,2.10
2023-03-30T11:06:57.965Z,2.40
2023-03-30T11:09:28.562Z,1.70
2023-03-30T11:12:02.175Z,2.07
2023-03-30T11:14:47.604Z,2.13
2023-03-30T11:17:21.378Z,1.87
2023-03-30T11:19:51.797Z,2.00
2023-03-30T11:22:41.948Z,1.90
2023-03-30T11:25:19.589Z,2.60
2023-03-30T11:27:56.417Z,1.90
2023-03-30T11:30:33.600Z,2.30
2023-03-30T11:33:12.742Z,2.10
2023-03-30T11:35:51.633Z,2.50
2023-03-30T11:38:21.807Z,2.00
2023-03-30T11:41:14.857Z,2.67
2023-03-30T11:43:41.506Z,2.83
2023-03-30T11:46:08.788Z,1.83
2023-03-30T11:49:16.347Z,2.37
2023-03-30T11:52:07.194Z,2.50
2023-03-30T11:55:04.224Z,2.57
2023-03-30T11:57:37.996Z,2.27
2023-03-30T12:00:26.699Z,2.40
2023-03-30T12:03:08.803Z,2.30
2023-03-30T12:05:39.355Z,1.87
2023-03-30T12:08:36.912Z,2.13
2023-03-30T12:11:17.315Z,2.60
2023-03-30T12:13:51.289Z,2.80
2023-03-30T12:16:40.715Z,2.40
2023-03-30T12:19:17.676Z,2.60
2023-03-30T12:22:24.541Z,2.30
2023-03-30T12:25:01.389Z,2.00
2023-03-30T12:27:29.060Z,2.43
2023-03-30T12:30:12.265Z,2.10
2023-03-30T12:32:38.663Z,2.30
2023-03-30T12:35:43.968Z,2.67
2023-03-30T12:38:17.344Z,2.77
2023-03-30T12:40:49.249Z,2.77
2023-03-30T12:44:02.303Z,2.93
2023-03-30T12:46:35.895Z,2.50
2023-03-30T12:49:22.282Z,2.17
2023-03-30T12:51:58.138Z,2.37
2023-03-30T12:54:42.621Z,2.60
2023-03-30T12:57:18.055Z,1.93
2023-03-30T13:00:09.604Z,2.00
2023-03-30T13:02:57.530Z,2.10
2023-03-30T13:05:32.085Z,2.13
2023-03-30T13:08:03.688Z,1.87
2023-03-30T13:10:30.231Z,1.93
2023-03-30T13:12:58.265Z,1.87
2023-03-30T13:15:57.917Z,2.40
2023-03-30T13:18:32.119Z,2.00
2023-03-30T13:21:16.028Z,1.77
2023-03-30T13:23:45.321Z,1.63
2023-03-30T13:26:34.309Z,1.70
2023-03-30T13:29:11.664Z,1.43
2023-03-30T13:31:51.343Z,2.70
2023-03-30T13:35:06.138Z,1.87
2023-03-30T13:38:07.601Z,1.70
2023-03-30T13:40:41.837Z,1.90
2023-03-30T13:43:24.724Z,2.20
2023-03-30T13:46:17.195Z,1.70
2023-03-30T13:48:59.606Z,1.80
2023-03-30T13:51:27.837Z,2.27
2023-03-30T13:53:57.940Z,2.90
2023-03-30T13:56:25.899Z,2.00
2023-03-30T13:59:01.286Z,2.10
2023-03-30T14:01:27.954Z,2.10
2023-03-30T14:03:58.666Z,1.90
2023-03-30T14:06:30.211Z,2.23
2023-03-30T14:09:09.621Z,1.90
2023-03-30T14:11:48.464Z,1.90
2023-03-30T14:14:31.546Z,2.13
2023-03-30T14:16:59.152Z,2.10
2023-03-30T14:19:28.411Z,1.80
2023-03-30T14:22:16.200Z,1.87
2023-03-30T14:24:56.703Z,3.00
2023-03-30T14:27:23.140Z,1.83
2023-03-30T14:29:51.311Z,2.10
2023-03-30T14:32:21.271Z,2.47
2023-03-30T14:34:49.579Z,1.70
2023-03-30T14:37:17.269Z,2.07
2023-03-30T14:39:53.943Z,2.27
2023-03-30T14:42:22.279Z,1.73
2023-03-30T14:44:50.878Z,1.50
2023-03-30T14:47:25.877Z,2.10
2023-03-30T14:49:54.931Z,1.83
2023-03-30T14:52:23.516Z,2.47
2023-03-30T14:55:05.136Z,2.03
2023-03-30T14:57:38.131Z,1.93
2023-03-30T15:00:24.622Z,2.33
2023-03-30T15:02:57.036Z,2.63
2023-03-30T15:05:25.977Z,2.70
2023-03-30T15:07:52.872Z,2.23
2023-03-30T15:10:26.803Z,2.83
2023-03-30T15:12:55.674Z,2.40
2023-03-30T15:15:26.750Z,2.47
2023-03-30T15:17:53.245Z,2.53
2023-03-30T15:20:19.790Z,2.73
2023-03-30T15:22:51.710Z,2.33
2023-03-30T15:25:21.361Z,2.33
2023-03-30T15:28:15.530Z,2.40
2023-03-30T15:30:46.636Z,2.23
2023-03-30T15:33:41.080Z,2.10
2023-03-30T15:36:17.573Z,2.73
2023-03-30T15:38:51.332Z,2.40
2023-03-30T15:41:18.835Z,2.60
2023-03-30T15:43:57.171Z,2.50
2023-03-30T15:46:24.675Z,2.43
2023-03-30T15:48:55.960Z,2.47
2023-03-30T15:51:45.693Z,2.87
2023-03-30T15:54:34.533Z,2.40
2023-03-30T15:57:13.228Z,3.20
2023-03-30T15:59:44.131Z,2.80
2023-03-30T16:02:16.470Z,2.40
2023-03-30T16:04:42.936Z,2.57
2023-03-30T16:07:22.289Z,3.13
2023-03-30T16:09:48.936Z,2.60
2023-03-30T16:12:17.463Z,2.50
2023-03-30T16:14:44.189Z,2.80
2023-03-30T16:17:13.101Z,2.73
2023-03-30T16:19:43.177Z,2.70
2023-03-30T16:22:10.981Z,2.70
2023-03-30T16:24:37.599Z,2.80
2023-03-30T16:27:05.869Z,3.03
2023-03-30T16:29:32.843Z,2.73
2023-03-30T16:31:59.611Z,3.03
2023-03-30T16:34:26.626Z,3.03
2023-03-30T16:36:53.328Z,2.67
2023-03-30T16:39:22.280Z,2.97
2023-03-30T16:41:49.565Z,2.80
2023-03-30T16:44:16.846Z,2.57
2023-03-30T16:46:43.462Z,2.77
2023-03-30T16:49:18.550Z,3.13
2023-03-30T16:51:45.404Z,3.20
2023-03-30T16:54:27.183Z,2.50
2023-03-30T16:56:56.493Z,2.87
2023-03-30T16:59:25.783Z,3.13
2023-03-30T17:01:52.230Z,2.70
2023-03-30T17:04:18.986Z,2.90
2023-03-30T17:06:45.593Z,3.40
2023-03-30T17:09:17.517Z,2.70
2023-03-30T17:11:44.753Z,3.17
2023-03-30T17:14:11.189Z,3.20
2023-03-30T17:16:37.766Z,2.83
2023-03-30T17:19:04.232Z,2.50
2023-03-30T17:21:30.684Z,3.20
2023-03-30T17:23:57.823Z,2.10
2023-03-30T17:26:24.274Z,2.53
2023-03-30T17:28:52.146Z,2.97
2023-03-30T17:31:20.813Z,3.10
2023-03-30T17:33:48.119Z,2.37
2023-03-30T17:36:21.088Z,2.73
2023-03-30T17:38:48.108Z,3.23
2023-03-30T17:41:15.568Z,3.13
2023-03-30T17:43:43.502Z,2.80
2023-03-30T17:46:12.419Z,3.17
2023-03-30T17:48:39.011Z,3.00
2023-03-30T17:51:06.005Z,3.30
2023-03-30T17:53:33.183Z,3.00
2023-03-30T17:55:59.668Z,3.47
2023-03-30T17:58:34.334Z,4.00
2023-03-30T18:01:02.606Z,3.97
2023-03-30T18:03:32.197Z,3.17
2023-03-30T18:06:00.386Z,3.00
2023-03-30T18:08:27.552Z,3.40
2023-03-30T18:10:58.214Z,3.47
2023-03-30T18:13:26.552Z,3.40
2023-03-30T18:15:55.125Z,3.90
2023-03-30T18:18:24.840Z,3.97
2023-03-30T18:20:56.084Z,3.20
2023-03-30T18:23:23.252Z,3.27
2023-03-30T18:25:49.952Z,3.30
2023-03-30T18:28:26.836Z,2.77
2023-03-30T18:30:55.327Z,3.03
2023-03-30T18:33:21.943Z,2.80
2023-03-30T18:35:49.761Z,3.17
2023-03-30T18:38:18.499Z,3.20
2023-03-30T18:40:47.138Z,3.00
2023-03-30T18:43:13.728Z,2.83
2023-03-30T18:45:42.482Z,3.50
2023-03-30T18:48:12.337Z,3.30
2023-03-30T18:50:44.598Z,3.63
2023-03-30T18:53:16.085Z,2.80
2023-03-30T18:56:00.234Z,2.97
2023-03-30T18:58:33.449Z,3.43
2023-03-30T19:01:00.380Z,4.07
2023-03-30T19:03:28.251Z,2.87
2023-03-30T19:05:54.686Z,3.33
2023-03-30T19:08:23.689Z,3.50
2023-03-30T19:10:52.434Z,3.33
2023-03-30T19:13:20.183Z,3.17
2023-03-30T19:15:47.551Z,3.23
2023-03-30T19:18:15.608Z,3.73
2023-03-30T19:20:42.171Z,4.07
2023-03-30T19:23:11.851Z,3.03
2023-03-30T19:25:38.679Z,3.77
2023-03-30T19:28:06.178Z,3.27
2023-03-30T19:30:36.001Z,3.90
2023-03-30T19:33:06.533Z,4.80
2023-03-30T19:35:33.070Z,3.50
2023-03-30T19:37:59.637Z,3.27
2023-03-30T19:40:26.093Z,3.47
2023-03-30T19:42:52.698Z,3.73
2023-03-30T19:45:21.082Z,3.77
2023-03-30T19:47:47.740Z,4.27
2023-03-30T19:50:17.848Z,3.50
2023-03-30T19:52:48.411Z,3.63
2023-03-30T19:55:14.990Z,3.60
2023-03-30T19:57:41.383Z,3.87
2023-03-30T20:00:12.679Z,4.00
2023-03-30T20:02:39.834Z,4.00
2023-03-30T20:05:06.822Z,3.40
2023-03-30T20:07:33.243Z,3.60
2023-03-30T20:12:26.123Z,3.97
2023-03-30T20:14:52.793Z,3.97
2023-03-30T20:17:21.900Z,3.90
2023-03-30T20:19:48.324Z,3.73
2023-03-30T20:22:14.784Z,3.90
2023-03-30T20:24:42.095Z,3.60
2023-03-30T20:27:09.782Z,4.10
2023-03-30T20:29:36.773Z,3.50
2023-03-30T20:32:03.514Z,4.37
2023-03-30T20:34:31.497Z,3.60
2023-03-30T20:36:57.965Z,4.13
2023-03-30T20:39:27.248Z,3.60
2023-03-30T20:41:57.971Z,4.17
2023-03-30T20:44:31.834Z,2.80
2023-03-30T20:46:58.803Z,3.47
2023-03-30T20:49:25.717Z,4.13
2023-03-30T20:51:53.094Z,3.53
2023-03-30T20:54:20.071Z,3.70
2023-03-30T20:56:46.644Z,3.90
2023-03-30T20:59:13.117Z,3.53
2023-03-30T21:01:40.832Z,3.60
2023-03-30T21:04:08.017Z,3.63
2023-03-30T21:06:35.153Z,3.30
2023-03-30T21:09:03.701Z,3.80
2023-03-30T21:11:33.657Z,3.70
2023-03-30T21:14:01.491Z,3.70
2023-03-30T21:16:28.051Z,3.87
2023-03-30T21:18:54.610Z,3.80
2023-03-30T21:21:21.012Z,3.43
2023-03-30T21:23:47.397Z,3.73
2023-03-30T21:26:13.976Z,3.90
2023-03-30T21:28:41.367Z,3.00
2023-03-30T21:31:09.429Z,3.43
2023-03-30T21:33:36.942Z,3.00
2023-03-30T21:36:04.608Z,3.70
2023-03-30T21:38:31.455Z,3.20
2023-03-30T21:41:04.519Z,3.77
2023-03-30T21:43:33.246Z,3.33
2023-03-30T21:46:01.935Z,3.20
2023-03-30T21:48:29.758Z,2.77
2023-03-30T21:51:17.305Z,3.13
2023-03-30T21:53:44.997Z,2.70
2023-03-30T21:56:11.939Z,2.50
2023-03-30T21:58:38.767Z,2.97
2023-03-30T22:01:12.386Z,2.73
2023-03-30T22:03:40.657Z,3.27
2023-03-30T22:06:08.343Z,3.13
2023-03-30T22:08:35.369Z,3.43
2023-03-30T22:11:04.423Z,2.80
2023-03-30T22:13:31.506Z,3.13
2023-03-30T22:16:06.902Z,3.07
2023-03-30T22:18:34.189Z,3.20
2023-03-30T22:21:01.401Z,2.70
2023-03-30T22:23:27.791Z,2.60
2023-03-30T22:25:54.251Z,3.00
2023-03-30T22:28:21.374Z,2.90
2023-03-30T22:30:48.280Z,2.67
2023-03-30T22:33:14.982Z,2.77
2023-03-30T22:35:43.310Z,2.87
2023-03-30T22:38:10.634Z,2.80
2023-03-30T22:40:39.386Z,2.93
2023-03-30T22:43:06.209Z,2.80
2023-03-30T22:45:32.739Z,2.90
2023-03-30T22:47:59.396Z,2.87
2023-03-30T22:50:27.503Z,2.30
2023-03-30T22:52:55.851Z,2.60
2023-03-30T22:55:23.022Z,3.17
2023-03-30T22:57:54.658Z,2.60
2023-03-30T23:00:21.907Z,2.40
2023-03-30T23:02:49.542Z,2.80
2023-03-30T23:05:17.032Z,3.13
2023-03-30T23:07:44.209Z,2.60
2023-03-30T23:10:14.720Z,2.70
2023-03-30T23:12:41.833Z,3.07
2023-03-30T23:15:09.870Z,3.10
2023-03-30T23:17:36.764Z,2.97
2023-03-30T23:20:05.356Z,4.10
2023-03-30T23:22:31.756Z,2.80
2023-03-30T23:24:58.135Z,3.20
2023-03-30T23:27:24.565Z,2.90
2023-03-30T23:29:52.633Z,3.40
2023-03-30T23:32:19.025Z,3.10
2023-03-30T23:34:45.567Z,2.90
2023-03-30T23:37:12.355Z,3.10
2023-03-30T23:39:39.017Z,3.27
2023-03-30T23:42:05.811Z,3.37
2023-03-30T23:44:32.355Z,2.70
2023-03-30T23:46:58.746Z,3.63
2023-03-30T23:49:25.142Z,3.03
2023-03-30T23:51:51.673Z,3.40
2023-03-30T23:54:18.250Z,3.30
2023-03-30T23:56:46.940Z,3.27
2023-03-30T23:59:13.441Z,3.70
